sensor_id;sensor_type;location;lat;lon;timestamp;pressure;altitude;pressure_sealevel;temperature;humidity
50636;BME280;36598;46.054;11.130;2022-08-25T00:02:18;99262.47;;;23.35;56.67
50636;BME280;36598;46.054;11.130;2022-08-25T00:04:43;99256.47;;;23.59;56.10
50636;BME280;36598;46.054;11.130;2022-08-25T00:07:09;99266.44;;;23.55;56.09
50636;BME280;36598;46.054;11.130;2022-08-25T00:09:34;99266.22;;;23.58;56.06
50636;BME280;36598;46.054;11.130;2022-08-25T00:12:00;99262.91;;;23.60;56.08
50636;BME280;36598;46.054;11.130;2022-08-25T00:14:34;99259.00;;;23.20;57.32
50636;BME280;36598;46.054;11.130;2022-08-25T00:17:00;99261.44;;;23.07;57.74
50636;BME280;36598;46.054;11.130;2022-08-25T00:19:28;99256.31;;;23.37;56.91
50636;BME280;36598;46.054;11.130;2022-08-25T00:21:56;99264.78;;;23.37;56.90
50636;BME280;36598;46.054;11.130;2022-08-25T00:24:21;99261.50;;;23.44;56.69
50636;BME280;36598;46.054;11.130;2022-08-25T00:26:47;99263.41;;;23.58;56.28
50636;BME280;36598;46.054;11.130;2022-08-25T00:29:13;99263.78;;;23.40;56.68
50636;BME280;36598;46.054;11.130;2022-08-25T00:31:39;99268.44;;;23.43;56.68
50636;BME280;36598;46.054;11.130;2022-08-25T00:34:08;99268.59;;;23.34;56.87
50636;BME280;36598;46.054;11.130;2022-08-25T00:36:34;99266.59;;;23.40;56.81
50636;BME280;36598;46.054;11.130;2022-08-25T00:39:00;99269.09;;;23.32;56.94
50636;BME280;36598;46.054;11.130;2022-08-25T00:41:25;99267.66;;;23.11;57.56
50636;BME280;36598;46.054;11.130;2022-08-25T00:43:55;99265.34;;;23.09;57.38
50636;BME280;36598;46.054;11.130;2022-08-25T00:46:22;99273.63;;;23.18;57.35
50636;BME280;36598;46.054;11.130;2022-08-25T00:48:51;99273.03;;;23.09;57.61
50636;BME280;36598;46.054;11.130;2022-08-25T00:51:19;99270.06;;;23.23;57.15
50636;BME280;36598;46.054;11.130;2022-08-25T00:53:47;99271.75;;;23.10;57.63
50636;BME280;36598;46.054;11.130;2022-08-25T00:56:13;99268.59;;;23.34;56.87
50636;BME280;36598;46.054;11.130;2022-08-25T00:58:39;99270.09;;;23.29;56.96
50636;BME280;36598;46.054;11.130;2022-08-25T01:01:05;99269.53;;;22.93;57.86
50636;BME280;36598;46.054;11.130;2022-08-25T01:03:31;99272.56;;;22.90;57.91
50636;BME280;36598;46.054;11.130;2022-08-25T01:05:57;99272.28;;;22.88;57.76
50636;BME280;36598;46.054;11.130;2022-08-25T01:08:24;99274.22;;;22.56;58.63
50636;BME280;36598;46.054;11.130;2022-08-25T01:10:51;99267.41;;;22.88;58.13
50636;BME280;36598;46.054;11.130;2022-08-25T01:13:19;99268.56;;;22.76;58.40
50636;BME280;36598;46.054;11.130;2022-08-25T01:15:45;99267.00;;;22.95;57.94
50636;BME280;36598;46.054;11.130;2022-08-25T01:18:11;99267.22;;;22.92;57.73
50636;BME280;36598;46.054;11.130;2022-08-25T01:20:37;99266.94;;;22.69;58.46
50636;BME280;36598;46.054;11.130;2022-08-25T01:23:02;99263.25;;;23.04;57.49
50636;BME280;36598;46.054;11.130;2022-08-25T01:28:17;99273.22;;;22.33;59.26
50636;BME280;36598;46.054;11.130;2022-08-25T01:30:42;99268.66;;;22.00;60.17
50636;BME280;36598;46.054;11.130;2022-08-25T01:33:08;99265.97;;;22.52;58.86
50636;BME280;36598;46.054;11.130;2022-08-25T01:35:34;99270.38;;;22.53;58.90
50636;BME280;36598;46.054;11.130;2022-08-25T01:38:00;99274.19;;;22.50;59.20
50636;BME280;36598;46.054;11.130;2022-08-25T01:40:26;99274.19;;;22.30;59.65
50636;BME280;36598;46.054;11.130;2022-08-25T01:42:53;99280.03;;;22.26;59.97
50636;BME280;36598;46.054;11.130;2022-08-25T01:45:24;99277.97;;;22.47;59.58
50636;BME280;36598;46.054;11.130;2022-08-25T01:47:49;99273.81;;;22.63;58.91
50636;BME280;36598;46.054;11.130;2022-08-25T01:50:14;99272.25;;;22.62;59.06
50636;BME280;36598;46.054;11.130;2022-08-25T01:55:11;99270.78;;;22.46;59.56
50636;BME280;36598;46.054;11.130;2022-08-25T01:57:36;99265.72;;;22.50;59.24
50636;BME280;36598;46.054;11.130;2022-08-25T02:00:04;99264.59;;;22.42;59.28
50636;BME280;36598;46.054;11.130;2022-08-25T02:02:29;99258.97;;;22.42;59.21
50636;BME280;36598;46.054;11.130;2022-08-25T02:04:54;99259.06;;;22.27;59.92
50636;BME280;36598;46.054;11.130;2022-08-25T02:07:20;99268.84;;;22.32;59.67
50636;BME280;36598;46.054;11.130;2022-08-25T02:09:45;99263.53;;;22.39;59.50
50636;BME280;36598;46.054;11.130;2022-08-25T02:12:11;99265.84;;;22.61;58.86
50636;BME280;36598;46.054;11.130;2022-08-25T02:14:36;99269.34;;;22.77;58.34
50636;BME280;36598;46.054;11.130;2022-08-25T02:17:02;99266.94;;;22.69;58.76
50636;BME280;36598;46.054;11.130;2022-08-25T02:19:28;99257.97;;;22.45;59.46
50636;BME280;36598;46.054;11.130;2022-08-25T02:21:55;99265.28;;;22.57;58.95
50636;BME280;36598;46.054;11.130;2022-08-25T02:24:20;99267.41;;;22.21;59.89
50636;BME280;36598;46.054;11.130;2022-08-25T02:26:45;99267.97;;;22.25;59.42
50636;BME280;36598;46.054;11.130;2022-08-25T02:29:11;99268.91;;;22.17;59.90
50636;BME280;36598;46.054;11.130;2022-08-25T02:31:36;99253.41;;;22.27;59.72
50636;BME280;36598;46.054;11.130;2022-08-25T02:34:02;99263.31;;;21.67;61.24
50636;BME280;36598;46.054;11.130;2022-08-25T02:36:27;99258.41;;;22.17;59.82
50636;BME280;36598;46.054;11.130;2022-08-25T02:38:53;99260.59;;;22.28;59.80
50636;BME280;36598;46.054;11.130;2022-08-25T02:41:20;99256.28;;;22.33;59.63
50636;BME280;36598;46.054;11.130;2022-08-25T02:43:46;99258.13;;;22.15;60.12
50636;BME280;36598;46.054;11.130;2022-08-25T02:46:13;99258.41;;;22.38;59.42
50636;BME280;36598;46.054;11.130;2022-08-25T02:48:38;99255.00;;;22.13;60.36
50636;BME280;36598;46.054;11.130;2022-08-25T02:51:04;99254.59;;;22.20;60.15
50636;BME280;36598;46.054;11.130;2022-08-25T02:53:30;99251.63;;;22.30;59.92
50636;BME280;36598;46.054;11.130;2022-08-25T02:55:56;99256.75;;;22.52;59.37
50636;BME280;36598;46.054;11.130;2022-08-25T02:58:21;99248.66;;;22.39;59.75
50636;BME280;36598;46.054;11.130;2022-08-25T03:00:48;99256.84;;;22.57;59.40
50636;BME280;36598;46.054;11.130;2022-08-25T03:03:14;99254.25;;;22.33;60.01
50636;BME280;36598;46.054;11.130;2022-08-25T03:05:39;99250.84;;;22.49;59.65
50636;BME280;36598;46.054;11.130;2022-08-25T03:08:05;99249.03;;;22.72;58.94
50636;BME280;36598;46.054;11.130;2022-08-25T03:10:31;99239.75;;;22.66;58.82
50636;BME280;36598;46.054;11.130;2022-08-25T03:12:56;99242.63;;;22.72;58.83
50636;BME280;36598;46.054;11.130;2022-08-25T03:15:22;99246.91;;;22.41;60.11
50636;BME280;36598;46.054;11.130;2022-08-25T03:17:48;99246.97;;;22.47;59.51
50636;BME280;36598;46.054;11.130;2022-08-25T03:20:14;99250.00;;;22.43;59.82
50636;BME280;36598;46.054;11.130;2022-08-25T03:22:39;99247.53;;;22.31;60.06
50636;BME280;36598;46.054;11.130;2022-08-25T03:25:05;99252.19;;;21.93;61.27
50636;BME280;36598;46.054;11.130;2022-08-25T03:27:48;99252.59;;;22.06;60.70
50636;BME280;36598;46.054;11.130;2022-08-25T03:30:15;99248.09;;;22.35;59.77
50636;BME280;36598;46.054;11.130;2022-08-25T03:32:41;99249.59;;;21.74;60.80
50636;BME280;36598;46.054;11.130;2022-08-25T03:35:07;99248.91;;;21.80;60.46
50636;BME280;36598;46.054;11.130;2022-08-25T03:37:32;99245.47;;;21.90;60.19
50636;BME280;36598;46.054;11.130;2022-08-25T03:39:57;99244.22;;;22.12;59.41
50636;BME280;36598;46.054;11.130;2022-08-25T03:42:23;99245.00;;;22.12;59.16
50636;BME280;36598;46.054;11.130;2022-08-25T03:44:48;99249.22;;;22.22;58.87
50636;BME280;36598;46.054;11.130;2022-08-25T03:47:14;99244.03;;;22.15;59.32
50636;BME280;36598;46.054;11.130;2022-08-25T03:49:40;99247.63;;;22.16;59.71
50636;BME280;36598;46.054;11.130;2022-08-25T03:52:05;99259.25;;;22.23;59.56
50636;BME280;36598;46.054;11.130;2022-08-25T03:54:30;99258.50;;;22.08;59.92
50636;BME280;36598;46.054;11.130;2022-08-25T03:56:56;99261.31;;;21.88;60.56
50636;BME280;36598;46.054;11.130;2022-08-25T03:59:21;99255.19;;;22.10;59.76
50636;BME280;36598;46.054;11.130;2022-08-25T04:01:47;99251.38;;;21.92;60.09
50636;BME280;36598;46.054;11.130;2022-08-25T04:04:13;99250.34;;;22.10;59.50
50636;BME280;36598;46.054;11.130;2022-08-25T04:06:41;99258.22;;;21.86;60.38
50636;BME280;36598;46.054;11.130;2022-08-25T04:09:07;99253.06;;;22.05;59.61
50636;BME280;36598;46.054;11.130;2022-08-25T04:11:33;99255.56;;;22.17;59.47
50636;BME280;36598;46.054;11.130;2022-08-25T04:13:58;99262.72;;;21.78;60.83
50636;BME280;36598;46.054;11.130;2022-08-25T04:19:25;99252.22;;;21.78;60.83
50636;BME280;36598;46.054;11.130;2022-08-25T04:21:51;99254.00;;;21.75;60.85
50636;BME280;36598;46.054;11.130;2022-08-25T04:24:17;99257.78;;;21.72;60.68
50636;BME280;36598;46.054;11.130;2022-08-25T04:26:47;99256.94;;;21.87;60.22
50636;BME280;36598;46.054;11.130;2022-08-25T04:29:13;99258.75;;;21.69;60.58
50636;BME280;36598;46.054;11.130;2022-08-25T04:31:42;99252.06;;;21.87;60.04
50636;BME280;36598;46.054;11.130;2022-08-25T04:34:08;99256.25;;;21.92;59.94
50636;BME280;36598;46.054;11.130;2022-08-25T04:36:33;99255.75;;;21.58;60.72
50636;BME280;36598;46.054;11.130;2022-08-25T04:38:58;99254.59;;;21.65;60.82
50636;BME280;36598;46.054;11.130;2022-08-25T04:41:24;99257.66;;;21.82;60.06
50636;BME280;36598;46.054;11.130;2022-08-25T04:43:50;99257.00;;;21.92;59.60
50636;BME280;36598;46.054;11.130;2022-08-25T04:48:41;99253.63;;;21.68;60.18
50636;BME280;36598;46.054;11.130;2022-08-25T04:51:17;99260.72;;;21.84;59.54
50636;BME280;36598;46.054;11.130;2022-08-25T04:53:43;99253.28;;;21.81;60.06
50636;BME280;36598;46.054;11.130;2022-08-25T04:56:10;99252.41;;;21.74;60.27
50636;BME280;36598;46.054;11.130;2022-08-25T04:58:36;99247.22;;;21.67;60.65
50636;BME280;36598;46.054;11.130;2022-08-25T05:01:03;99255.94;;;21.69;60.72
50636;BME280;36598;46.054;11.130;2022-08-25T05:03:28;99255.00;;;21.93;60.21
50636;BME280;36598;46.054;11.130;2022-08-25T05:05:55;99252.44;;;21.95;60.15
50636;BME280;36598;46.054;11.130;2022-08-25T05:08:20;99255.22;;;21.74;60.82
50636;BME280;36598;46.054;11.130;2022-08-25T05:10:45;99260.06;;;21.89;60.69
50636;BME280;36598;46.054;11.130;2022-08-25T05:13:10;99260.91;;;21.95;60.56
50636;BME280;36598;46.054;11.130;2022-08-25T05:15:36;99273.13;;;21.92;60.39
50636;BME280;36598;46.054;11.130;2022-08-25T05:18:16;99260.59;;;21.72;61.02
50636;BME280;36598;46.054;11.130;2022-08-25T05:20:42;99267.09;;;21.99;60.19
50636;BME280;36598;46.054;11.130;2022-08-25T05:23:08;99261.78;;;22.21;59.22
50636;BME280;36598;46.054;11.130;2022-08-25T05:25:33;99258.59;;;22.34;58.78
50636;BME280;36598;46.054;11.130;2022-08-25T05:27:58;99259.16;;;22.18;58.98
50636;BME280;36598;46.054;11.130;2022-08-25T05:30:24;99258.97;;;22.42;58.58
50636;BME280;36598;46.054;11.130;2022-08-25T05:32:49;99255.44;;;22.06;59.74
50636;BME280;36598;46.054;11.130;2022-08-25T05:35:14;99254.03;;;22.37;59.12
50636;BME280;36598;46.054;11.130;2022-08-25T05:37:40;99257.22;;;22.09;59.68
50636;BME280;36598;46.054;11.130;2022-08-25T05:40:05;99257.69;;;22.02;59.49
50636;BME280;36598;46.054;11.130;2022-08-25T05:42:32;99255.53;;;21.12;62.58
50636;BME280;36598;46.054;11.130;2022-08-25T05:44:57;99263.34;;;20.93;63.28
50636;BME280;36598;46.054;11.130;2022-08-25T05:47:22;99261.34;;;21.38;62.15
50636;BME280;36598;46.054;11.130;2022-08-25T05:49:48;99265.41;;;21.37;62.32
50636;BME280;36598;46.054;11.130;2022-08-25T05:52:13;99266.84;;;21.17;63.03
50636;BME280;36598;46.054;11.130;2022-08-25T05:54:38;99258.88;;;21.45;62.32
50636;BME280;36598;46.054;11.130;2022-08-25T05:57:04;99259.25;;;21.68;61.57
50636;BME280;36598;46.054;11.130;2022-08-25T06:02:29;99260.75;;;22.04;60.57
50636;BME280;36598;46.054;11.130;2022-08-25T06:05:11;99258.91;;;22.01;60.65
50636;BME280;36598;46.054;11.130;2022-08-25T06:07:38;99258.75;;;22.25;59.44
50636;BME280;36598;46.054;11.130;2022-08-25T06:10:04;99252.13;;;23.27;56.53
50636;BME280;36598;46.054;11.130;2022-08-25T06:12:31;99258.84;;;24.09;54.16
50636;BME280;36598;46.054;11.130;2022-08-25T06:14:57;99247.47;;;24.52;52.72
50636;BME280;36598;46.054;11.130;2022-08-25T06:17:22;99250.19;;;25.34;50.01
50636;BME280;36598;46.054;11.130;2022-08-25T06:19:48;99247.06;;;25.60;48.79
50636;BME280;36598;46.054;11.130;2022-08-25T06:22:13;99242.56;;;26.15;47.88
50636;BME280;36598;46.054;11.130;2022-08-25T06:24:38;99244.56;;;26.32;46.88
50636;BME280;36598;46.054;11.130;2022-08-25T06:27:04;99245.28;;;26.38;45.55
50636;BME280;36598;46.054;11.130;2022-08-25T06:29:30;99241.81;;;27.09;43.77
50636;BME280;36598;46.054;11.130;2022-08-25T06:31:55;99244.00;;;26.91;44.39
50636;BME280;36598;46.054;11.130;2022-08-25T06:34:20;99240.00;;;27.41;43.61
50636;BME280;36598;46.054;11.130;2022-08-25T06:36:51;99233.66;;;27.30;43.18
50636;BME280;36598;46.054;11.130;2022-08-25T06:39:17;99231.88;;;27.27;43.32
50636;BME280;36598;46.054;11.130;2022-08-25T06:41:42;99224.69;;;27.99;42.04
50636;BME280;36598;46.054;11.130;2022-08-25T06:44:07;99224.00;;;28.55;40.71
50636;BME280;36598;46.054;11.130;2022-08-25T06:46:35;99223.47;;;28.38;41.11
50636;BME280;36598;46.054;11.130;2022-08-25T06:49:00;99222.63;;;29.00;39.89
50636;BME280;36598;46.054;11.130;2022-08-25T06:51:26;99222.66;;;27.75;42.35
50636;BME280;36598;46.054;11.130;2022-08-25T06:53:51;99219.69;;;28.67;40.30
50636;BME280;36598;46.054;11.130;2022-08-25T06:56:18;99217.75;;;28.76;40.87
50636;BME280;36598;46.054;11.130;2022-08-25T06:58:43;99215.66;;;29.59;39.03
50636;BME280;36598;46.054;11.130;2022-08-25T07:01:10;99218.16;;;29.63;38.07
50636;BME280;36598;46.054;11.130;2022-08-25T07:03:35;99215.88;;;29.88;37.17
50636;BME280;36598;46.054;11.130;2022-08-25T07:06:01;99214.34;;;29.87;37.60
50636;BME280;36598;46.054;11.130;2022-08-25T07:08:26;99209.19;;;30.12;36.79
50636;BME280;36598;46.054;11.130;2022-08-25T07:10:51;99212.44;;;29.04;38.96
50636;BME280;36598;46.054;11.130;2022-08-25T07:13:17;99207.88;;;29.86;37.08
50636;BME280;36598;46.054;11.130;2022-08-25T07:15:42;99205.13;;;29.94;37.43
50636;BME280;36598;46.054;11.130;2022-08-25T07:18:08;99198.53;;;30.26;36.54
50636;BME280;36598;46.054;11.130;2022-08-25T07:20:36;99199.16;;;30.32;36.16
50636;BME280;36598;46.054;11.130;2022-08-25T07:23:01;99202.25;;;30.34;36.25
50636;BME280;36598;46.054;11.130;2022-08-25T07:25:26;99193.16;;;30.22;36.40
50636;BME280;36598;46.054;11.130;2022-08-25T07:27:52;99185.81;;;29.87;37.66
50636;BME280;36598;46.054;11.130;2022-08-25T07:30:18;99180.16;;;30.82;35.58
50636;BME280;36598;46.054;11.130;2022-08-25T07:32:43;99178.00;;;30.61;36.20
50636;BME280;36598;46.054;11.130;2022-08-25T07:35:09;99181.38;;;31.57;34.42
50636;BME280;36598;46.054;11.130;2022-08-25T07:37:44;99175.88;;;30.96;35.03
50636;BME280;36598;46.054;11.130;2022-08-25T07:40:13;99175.84;;;31.09;34.89
50636;BME280;36598;46.054;11.130;2022-08-25T07:42:38;99172.84;;;30.94;35.28
50636;BME280;36598;46.054;11.130;2022-08-25T07:45:07;99163.69;;;31.16;34.52
50636;BME280;36598;46.054;11.130;2022-08-25T07:47:34;99162.34;;;31.38;34.89
50636;BME280;36598;46.054;11.130;2022-08-25T07:50:00;99155.75;;;31.23;35.04
50636;BME280;36598;46.054;11.130;2022-08-25T07:52:25;99165.41;;;31.61;34.23
50636;BME280;36598;46.054;11.130;2022-08-25T07:54:50;99166.75;;;31.68;33.82
50636;BME280;36598;46.054;11.130;2022-08-25T07:57:18;99157.81;;;32.00;33.64
50636;BME280;36598;46.054;11.130;2022-08-25T07:59:43;99153.59;;;31.36;34.84
50636;BME280;36598;46.054;11.130;2022-08-25T08:02:10;99153.22;;;32.41;33.03
50636;BME280;36598;46.054;11.130;2022-08-25T08:04:36;99158.97;;;32.49;32.88
50636;BME280;36598;46.054;11.130;2022-08-25T08:07:01;99155.56;;;32.14;33.72
50636;BME280;36598;46.054;11.130;2022-08-25T08:09:26;99150.94;;;31.96;34.01
50636;BME280;36598;46.054;11.130;2022-08-25T08:11:54;99151.91;;;32.57;32.61
50636;BME280;36598;46.054;11.130;2022-08-25T08:14:20;99140.53;;;31.49;33.96
50636;BME280;36598;46.054;11.130;2022-08-25T08:16:45;99143.72;;;32.10;32.87
50636;BME280;36598;46.054;11.130;2022-08-25T08:19:10;99137.91;;;31.87;33.01
50636;BME280;36598;46.054;11.130;2022-08-25T08:21:36;99133.91;;;32.34;32.69
50636;BME280;36598;46.054;11.130;2022-08-25T08:24:03;99133.47;;;33.04;32.13
50636;BME280;36598;46.054;11.130;2022-08-25T08:26:29;99136.28;;;32.74;31.88
50636;BME280;36598;46.054;11.130;2022-08-25T08:28:54;99133.25;;;32.12;32.20
50636;BME280;36598;46.054;11.130;2022-08-25T08:31:21;99136.06;;;32.72;31.82
50636;BME280;36598;46.054;11.130;2022-08-25T08:33:47;99131.06;;;31.98;32.89
50636;BME280;36598;46.054;11.130;2022-08-25T08:36:12;99124.63;;;32.05;32.80
50636;BME280;36598;46.054;11.130;2022-08-25T08:38:39;99118.13;;;31.68;33.09
50636;BME280;36598;46.054;11.130;2022-08-25T08:44:09;99117.84;;;32.31;32.81
50636;BME280;36598;46.054;11.130;2022-08-25T08:46:39;99117.75;;;32.67;32.22
50636;BME280;36598;46.054;11.130;2022-08-25T08:49:15;99123.13;;;33.01;31.34
50636;BME280;36598;46.054;11.130;2022-08-25T08:54:51;99107.09;;;33.06;31.04
50636;BME280;36598;46.054;11.130;2022-08-25T08:57:21;99103.25;;;33.34;31.10
50636;BME280;36598;46.054;11.130;2022-08-25T08:59:52;99096.91;;;33.58;31.08
50636;BME280;36598;46.054;11.130;2022-08-25T09:02:27;99098.66;;;33.46;30.99
50636;BME280;36598;46.054;11.130;2022-08-25T09:04:56;99090.22;;;33.48;31.07
50636;BME280;36598;46.054;11.130;2022-08-25T09:07:28;99087.53;;;33.58;31.43
50636;BME280;36598;46.054;11.130;2022-08-25T09:09:54;99081.44;;;32.54;32.27
50636;BME280;36598;46.054;11.130;2022-08-25T09:12:36;99076.63;;;33.64;30.38
50636;BME280;36598;46.054;11.130;2022-08-25T09:15:13;99069.38;;;33.40;31.45
50636;BME280;36598;46.054;11.130;2022-08-25T09:23:24;99071.75;;;33.82;30.62
50636;BME280;36598;46.054;11.130;2022-08-25T09:28:29;99064.72;;;34.16;30.21
50636;BME280;36598;46.054;11.130;2022-08-25T09:31:00;99055.03;;;34.36;30.15
50636;BME280;36598;46.054;11.130;2022-08-25T09:33:26;99053.91;;;34.31;29.71
50636;BME280;36598;46.054;11.130;2022-08-25T09:35:52;99037.84;;;34.28;29.57
50636;BME280;36598;46.054;11.130;2022-08-25T09:38:18;99041.47;;;34.61;29.64
50636;BME280;36598;46.054;11.130;2022-08-25T09:40:45;99031.53;;;34.80;29.28
50636;BME280;36598;46.054;11.130;2022-08-25T09:43:22;99023.44;;;34.36;29.13
50636;BME280;36598;46.054;11.130;2022-08-25T09:45:49;99027.28;;;34.06;29.49
50636;BME280;36598;46.054;11.130;2022-08-25T09:50:52;99016.28;;;32.09;31.66
50636;BME280;36598;46.054;11.130;2022-08-25T09:53:18;99016.75;;;32.51;31.28
50636;BME280;36598;46.054;11.130;2022-08-25T09:55:44;99009.47;;;32.96;30.55
50636;BME280;36598;46.054;11.130;2022-08-25T09:58:18;99003.28;;;32.15;31.51
50636;BME280;36598;46.054;11.130;2022-08-25T10:03:52;99001.19;;;32.16;31.50
50636;BME280;36598;46.054;11.130;2022-08-25T10:06:17;98996.09;;;32.99;30.84
50636;BME280;36598;46.054;11.130;2022-08-25T10:11:09;98993.69;;;33.35;29.87
50636;BME280;36598;46.054;11.130;2022-08-25T10:16:07;98976.81;;;33.55;30.30
50636;BME280;36598;46.054;11.130;2022-08-25T10:18:33;98981.94;;;33.64;29.48
50636;BME280;36598;46.054;11.130;2022-08-25T10:21:00;98970.19;;;33.77;28.87
50636;BME280;36598;46.054;11.130;2022-08-25T10:23:25;98954.81;;;33.98;29.05
50636;BME280;36598;46.054;11.130;2022-08-25T10:25:51;98963.44;;;33.90;28.34
50636;BME280;36598;46.054;11.130;2022-08-25T10:28:35;98960.50;;;34.05;28.76
50636;BME280;36598;46.054;11.130;2022-08-25T10:31:14;98960.00;;;34.17;28.72
50636;BME280;36598;46.054;11.130;2022-08-25T10:36:40;98950.69;;;34.58;27.76
50636;BME280;36598;46.054;11.130;2022-08-25T10:39:08;98940.09;;;34.19;28.05
50636;BME280;36598;46.054;11.130;2022-08-25T10:41:44;98935.94;;;34.37;29.30
50636;BME280;36598;46.054;11.130;2022-08-25T10:49:44;98918.16;;;33.81;29.80
50636;BME280;36598;46.054;11.130;2022-08-25T10:52:16;98917.66;;;34.25;29.21
50636;BME280;36598;46.054;11.130;2022-08-25T10:54:47;98921.06;;;32.62;30.81
50636;BME280;36598;46.054;11.130;2022-08-25T10:59:50;98900.75;;;33.79;29.26
50636;BME280;36598;46.054;11.130;2022-08-25T11:04:48;98897.78;;;32.35;31.71
50636;BME280;36598;46.054;11.130;2022-08-25T11:07:22;98902.75;;;32.34;31.66
50636;BME280;36598;46.054;11.130;2022-08-25T11:12:53;98882.84;;;32.67;30.87
50636;BME280;36598;46.054;11.130;2022-08-25T11:15:22;98884.81;;;32.11;31.46
50636;BME280;36598;46.054;11.130;2022-08-25T11:18:02;98877.75;;;32.12;31.29
50636;BME280;36598;46.054;11.130;2022-08-25T11:20:32;98864.38;;;32.45;31.67
50636;BME280;36598;46.054;11.130;2022-08-25T11:23:12;98858.00;;;32.77;30.36
50636;BME280;36598;46.054;11.130;2022-08-25T11:25:46;98853.06;;;32.62;31.13
50636;BME280;36598;46.054;11.130;2022-08-25T11:28:17;98857.31;;;32.15;31.46
50636;BME280;36598;46.054;11.130;2022-08-25T11:30:46;98849.84;;;32.58;31.18
50636;BME280;36598;46.054;11.130;2022-08-25T11:33:15;98854.94;;;32.75;31.08
50636;BME280;36598;46.054;11.130;2022-08-25T11:35:48;98848.72;;;32.31;30.93
50636;BME280;36598;46.054;11.130;2022-08-25T11:41:19;98833.91;;;32.80;30.88
50636;BME280;36598;46.054;11.130;2022-08-25T11:46:21;98821.03;;;32.49;30.93
50636;BME280;36598;46.054;11.130;2022-08-25T11:48:55;98810.53;;;32.51;31.21
50636;BME280;36598;46.054;11.130;2022-08-25T11:51:27;98807.63;;;32.66;31.31
50636;BME280;36598;46.054;11.130;2022-08-25T11:56:52;98801.53;;;33.43;30.21
50636;BME280;36598;46.054;11.130;2022-08-25T12:02:02;98792.44;;;32.97;30.94
50636;BME280;36598;46.054;11.130;2022-08-25T12:14:50;98785.25;;;32.73;28.42
50636;BME280;36598;46.054;11.130;2022-08-25T12:17:17;98775.53;;;33.41;27.97
50636;BME280;36598;46.054;11.130;2022-08-25T12:32:22;98773.28;;;33.64;27.19
50636;BME280;36598;46.054;11.130;2022-08-25T12:37:20;98757.22;;;33.36;27.88
50636;BME280;36598;46.054;11.130;2022-08-25T12:45:39;98742.03;;;32.94;29.09
50636;BME280;36598;46.054;11.130;2022-08-25T12:47:45;98745.25;;;32.90;28.40
50636;BME280;36598;46.054;11.130;2022-08-25T12:53:40;98746.50;;;33.37;28.08
50636;BME280;36598;46.054;11.130;2022-08-25T12:55:48;98740.50;;;33.50;27.29
50636;BME280;36598;46.054;11.130;2022-08-25T12:58:14;98741.31;;;33.68;27.65
50636;BME280;36598;46.054;11.130;2022-08-25T13:03:25;98728.91;;;33.40;26.56
50636;BME280;36598;46.054;11.130;2022-08-25T13:16:15;98725.31;;;33.07;28.16
50636;BME280;36598;46.054;11.130;2022-08-25T13:18:41;98718.56;;;32.80;28.29
50636;BME280;36598;46.054;11.130;2022-08-25T13:23:39;98716.25;;;32.86;28.33
50636;BME280;36598;46.054;11.130;2022-08-25T13:26:05;98710.31;;;33.49;27.54
50636;BME280;36598;46.054;11.130;2022-08-25T13:28:33;98707.91;;;33.63;27.57
50636;BME280;36598;46.054;11.130;2022-08-25T13:31:01;98701.56;;;33.39;27.44
50636;BME280;36598;46.054;11.130;2022-08-25T13:33:28;98702.19;;;33.05;27.93
50636;BME280;36598;46.054;11.130;2022-08-25T13:35:55;98702.97;;;33.31;27.96
50636;BME280;36598;46.054;11.130;2022-08-25T13:38:40;98693.38;;;33.61;27.52
50636;BME280;36598;46.054;11.130;2022-08-25T13:41:06;98683.69;;;33.74;26.92
50636;BME280;36598;46.054;11.130;2022-08-25T13:43:33;98681.31;;;33.62;27.26
50636;BME280;36598;46.054;11.130;2022-08-25T13:45:59;98684.88;;;33.71;26.75
50636;BME280;36598;46.054;11.130;2022-08-25T13:48:35;98695.47;;;33.60;27.55
50636;BME280;36598;46.054;11.130;2022-08-25T13:51:33;98677.81;;;33.22;28.21
50636;BME280;36598;46.054;11.130;2022-08-25T13:53:53;98680.28;;;33.50;28.04
50636;BME280;36598;46.054;11.130;2022-08-25T13:56:38;98682.53;;;33.02;28.60
50636;BME280;36598;46.054;11.130;2022-08-25T13:59:05;98683.25;;;33.10;28.99
50636;BME280;36598;46.054;11.130;2022-08-25T14:01:32;98683.94;;;33.18;28.31
50636;BME280;36598;46.054;11.130;2022-08-25T14:04:58;98681.97;;;33.03;28.39
50636;BME280;36598;46.054;11.130;2022-08-25T14:09:38;98695.06;;;33.14;29.07
50636;BME280;36598;46.054;11.130;2022-08-25T14:12:03;98684.00;;;32.78;29.60
50636;BME280;36598;46.054;11.130;2022-08-25T14:14:30;98688.84;;;33.00;29.30
50636;BME280;36598;46.054;11.130;2022-08-25T14:17:01;98687.75;;;32.96;29.78
50636;BME280;36598;46.054;11.130;2022-08-25T14:19:26;98686.34;;;33.04;30.11
50636;BME280;36598;46.054;11.130;2022-08-25T14:21:52;98684.34;;;32.89;30.49
50636;BME280;36598;46.054;11.130;2022-08-25T14:24:19;98675.13;;;32.99;30.23
50636;BME280;36598;46.054;11.130;2022-08-25T14:26:45;98677.06;;;33.21;30.38
50636;BME280;36598;46.054;11.130;2022-08-25T14:29:11;98679.56;;;33.42;30.44
50636;BME280;36598;46.054;11.130;2022-08-25T14:31:37;98689.63;;;33.26;30.77
50636;BME280;36598;46.054;11.130;2022-08-25T14:34:08;98699.13;;;32.71;31.92
50636;BME280;36598;46.054;11.130;2022-08-25T14:36:36;98684.72;;;32.53;31.65
50636;BME280;36598;46.054;11.130;2022-08-25T14:39:02;98677.13;;;32.81;31.75
50636;BME280;36598;46.054;11.130;2022-08-25T14:41:31;98675.28;;;33.01;30.94
50636;BME280;36598;46.054;11.130;2022-08-25T14:43:58;98671.97;;;33.37;30.83
50636;BME280;36598;46.054;11.130;2022-08-25T14:46:24;98692.59;;;33.10;31.18
50636;BME280;36598;46.054;11.130;2022-08-25T14:48:52;98684.94;;;32.80;31.59
50636;BME280;36598;46.054;11.130;2022-08-25T14:51:19;98686.53;;;32.74;31.75